Airport View

Enter AWOS ICAO identifier for current METAR.

ex. KFNL

KSTE 030014Z AUTO 30011G27KT 10SM -VCTSRA SCT050 SCT070 BKN110 20/15 A2984 RMK AO2 LTG DSNT ALQS P0002 T01960147

3 Jun 2020 00:17

Frequency: 119.275

Phone: 715-344-5960

Other Area AWOS: KCWA - KISW - KAUW - KPCZ

TAF KCWA 022330Z 0300/0324 32006KT P6SM VCTS BKN050CB TEMPO 0300/0304 3SM TSRA BKN025CB FM030600 31005KT P6SM BKN090 FM031000 31005KT P6SM SKC AMD LTD TO CLD VIS AND WIND 0303/0311